Time;durP1;ratioP1;P1;durP2;ratioP2;P2;SDS_P1;SDS_P2;PMS_P1;PMS_P2;Temp;Humidity;BMP_temperature;BMP_pressure;BME280_temperature;BME280_humidity;BME280_pressure;Samples;Min_cycle;Max_cycle;Signal;HPM_P1;HPM_P2
2022/10/07 00:01:41;;;;;;;10.00;2.92;;;12.90;70.30;;;;;;5113674;28;20036;-74
2022/10/07 00:04:07;;;;;;;6.80;2.90;;;13.00;71.20;;;;;;5113670;28;20083;-74
2022/10/07 00:06:32;;;;;;;8.05;3.20;;;12.90;70.20;;;;;;5113769;28;20027;-73
2022/10/07 00:08:59;;;;;;;7.68;2.83;;;12.90;70.20;;;;;;5113509;28;20036;-74
2022/10/07 00:11:26;;;;;;;7.25;3.25;;;12.90;70.40;;;;;;5113583;28;20021;-74
2022/10/07 00:13:55;;;;;;;9.60;3.13;;;12.80;70.10;;;;;;5113540;28;20023;-73
2022/10/07 00:16:24;;;;;;;5.55;3.08;;;12.80;70.40;;;;;;5113546;28;20012;-73
2022/10/07 00:18:50;;;;;;;6.82;2.88;;;12.60;70.40;;;;;;5113498;28;20020;-74
2022/10/07 00:21:18;;;;;;;9.52;3.22;;;12.50;71.00;;;;;;5113474;28;20028;-74
2022/10/07 00:23:45;;;;;;;8.13;2.70;;;12.30;71.80;;;;;;5113467;28;20020;-74
2022/10/07 00:26:14;;;;;;;7.82;2.83;;;12.30;72.30;;;;;;5113414;28;20054;-74
2022/10/07 00:28:40;;;;;;;10.70;2.60;;;12.10;72.10;;;;;;5113258;28;20427;-74
2022/10/07 00:31:18;;;;;;;8.70;2.45;;;12.10;72.60;;;;;;5113349;28;20020;-74
2022/10/07 00:33:44;;;;;;;8.73;3.10;;;12.10;72.90;;;;;;5113425;28;20021;-73
2022/10/07 00:36:15;;;;;;;10.80;3.13;;;12.10;73.10;;;;;;5113322;28;20107;-74
2022/10/07 00:38:40;;;;;;;12.52;3.88;;;12.20;73.10;;;;;;5113350;28;20028;-74
2022/10/07 00:41:13;;;;;;;14.07;3.97;;;12.20;73.00;;;;;;5113272;28;20032;-74
2022/10/07 00:43:39;;;;;;;7.38;2.90;;;12.20;72.90;;;;;;5113334;28;20024;-74
2022/10/07 00:46:04;;;;;;;7.85;3.03;;;12.20;72.90;;;;;;5113275;28;20465;-73
2022/10/07 00:48:31;;;;;;;7.70;2.83;;;12.20;73.00;;;;;;5113145;28;20031;-74
2022/10/07 00:50:59;;;;;;;8.80;3.50;;;12.20;73.10;;;;;;5113054;28;20041;-73
2022/10/07 00:53:27;;;;;;;11.13;3.63;;;12.30;73.20;;;;;;5113178;28;20029;-73
2022/10/07 00:55:56;;;;;;;6.55;3.15;;;12.20;72.90;;;;;;5113169;28;20012;-74
2022/10/07 00:58:22;;;;;;;6.25;2.85;;;12.10;73.00;;;;;;5113150;28;20032;-74
2022/10/07 01:00:49;;;;;;;6.82;3.40;;;11.90;73.70;;;;;;5113158;28;20066;-74
2022/10/07 01:03:15;;;;;;;9.25;3.20;;;11.80;73.90;;;;;;5116970;28;20036;-74
2022/10/07 01:05:42;;;;;;;7.95;3.00;;;11.60;74.60;;;;;;5116910;28;20039;-74
2022/10/07 01:08:07;;;;;;;6.43;2.88;;;11.60;75.00;;;;;;5116798;28;20031;-74
2022/10/07 01:10:47;;;;;;;7.25;3.00;;;11.60;75.30;;;;;;5116824;28;20024;-73
2022/10/07 01:13:15;;;;;;;7.13;3.17;;;11.60;75.40;;;;;;5116808;28;20031;-74
2022/10/07 01:15:51;;;;;;;11.20;3.30;;;11.50;75.70;;;;;;5116705;28;20028;-74
2022/10/07 01:18:20;;;;;;;8.02;2.95;;;11.40;76.10;;;;;;5116717;28;20020;-74
2022/10/07 01:20:56;;;;;;;9.23;3.58;;;11.40;76.30;;;;;;5116574;28;20040;-74
2022/10/07 01:23:38;;;;;;;9.63;3.13;;;11.30;76.50;;;;;;5116771;28;20024;-74
2022/10/07 01:26:22;;;;;;;9.00;3.17;;;11.30;77.00;;;;;;5116581;28;20052;-74
2022/10/07 01:29:03;;;;;;;9.07;3.17;;;11.30;77.30;;;;;;5116347;28;20035;-74
2022/10/07 01:31:39;;;;;;;9.20;2.95;;;11.20;77.30;;;;;;5116606;28;20020;-74
2022/10/07 01:34:08;;;;;;;6.60;3.20;;;11.20;77.30;;;;;;5116424;28;20020;-74
2022/10/07 01:36:35;;;;;;;13.32;3.40;;;11.20;77.70;;;;;;5116347;28;20049;-74
2022/10/07 01:39:07;;;;;;;7.68;3.58;;;11.10;77.50;;;;;;5116281;28;20039;-73
2022/10/07 01:41:35;;;;;;;11.80;3.35;;;11.10;78.10;;;;;;5116293;28;20083;-74
2022/10/07 01:44:02;;;;;;;7.07;2.90;;;11.00;78.90;;;;;;5116193;28;20056;-74
2022/10/07 01:46:29;;;;;;;5.97;2.83;;;11.00;78.20;;;;;;5116149;28;20055;-74
2022/10/07 01:48:55;;;;;;;10.85;3.05;;;11.00;78.10;;;;;;5116005;28;20024;-74
2022/10/07 01:51:26;;;;;;;11.20;3.60;;;11.00;78.30;;;;;;5115915;28;20055;-74
2022/10/07 01:54:13;;;;;;;7.88;3.10;;;11.00;78.20;;;;;;5116057;28;20016;-74
2022/10/07 01:56:53;;;;;;;9.07;3.50;;;11.00;78.40;;;;;;5116125;28;20016;-74
2022/10/07 01:59:43;;;;;;;12.88;3.78;;;11.00;78.40;;;;;;5116058;28;20027;-73
2022/10/07 02:02:39;;;;;;;7.07;3.05;;;11.00;78.40;;;;;;5115833;28;20038;-73
2022/10/07 02:05:50;;;;;;;8.73;3.13;;;10.90;78.30;;;;;;5097866;28;20043;-74
2022/10/07 02:08:22;;;;;;;7.35;3.13;;;10.90;78.60;;;;;;5115685;28;20028;-73
2022/10/07 02:11:15;;;;;;;7.60;3.33;;;10.90;78.60;;;;;;5115720;28;20047;-74
2022/10/07 02:13:54;;;;;;;11.05;3.40;;;10.90;78.10;;;;;;5115144;28;20024;-73
2022/10/07 02:16:39;;;;;;;10.50;3.25;;;10.80;78.30;;;;;;5115567;28;20017;-74
2022/10/07 02:19:20;;;;;;;9.48;3.55;;;10.80;78.80;;;;;;5115515;28;20039;-74
2022/10/07 02:21:49;;;;;;;8.50;3.33;;;10.70;80.20;;;;;;5115525;28;20016;-74
2022/10/07 02:24:18;;;;;;;10.18;3.42;;;10.60;79.60;;;;;;5115442;28;20027;-74
2022/10/07 02:26:45;;;;;;;9.15;3.50;;;10.80;79.80;;;;;;5115347;28;20020;-73
2022/10/07 02:29:13;;;;;;;10.80;3.67;;;10.70;79.00;;;;;;5115169;28;20030;-74
2022/10/07 02:31:41;;;;;;;10.05;3.13;;;10.70;79.50;;;;;;5115269;28;20016;-74
2022/10/07 02:34:10;;;;;;;7.72;3.22;;;10.70;79.60;;;;;;5115348;28;20035;-74
2022/10/07 02:36:42;;;;;;;5.82;2.83;;;10.70;80.70;;;;;;5115285;28;20024;-73
2022/10/07 02:39:08;;;;;;;6.35;2.72;;;10.70;79.80;;;;;;5115152;28;20024;-73
2022/10/07 02:41:40;;;;;;;7.00;3.20;;;10.80;80.10;;;;;;5115076;28;20031;-74
2022/10/07 02:44:14;;;;;;;11.05;4.25;;;10.80;79.90;;;;;;5115212;28;20026;-74
2022/10/07 02:47:04;;;;;;;12.40;3.45;;;10.70;80.00;;;;;;5115141;28;20016;-74
2022/10/07 02:49:36;;;;;;;8.55;2.90;;;10.70;80.20;;;;;;5114864;28;20099;-74
2022/10/07 02:52:04;;;;;;;;;;;10.70;80.50;;;;;;5115203;28;20076;-74
2022/10/07 02:54:37;;;;;;;11.80;3.33;;;10.70;80.30;;;;;;5114803;28;19930;-74
2022/10/07 02:57:04;;;;;;;6.60;2.67;;;10.70;80.60;;;;;;5114831;28;20020;-73
2022/10/07 02:59:32;;;;;;;12.70;3.28;;;10.60;80.80;;;;;;5096836;28;20032;-74
2022/10/07 03:02:01;;;;;;;10.88;3.35;;;10.60;81.00;;;;;;5114669;28;20020;-74
2022/10/07 03:04:27;;;;;;;9.55;3.35;;;10.60;80.60;;;;;;5114616;28;20020;-73
2022/10/07 03:06:54;;;;;;;10.40;3.20;;;10.60;80.80;;;;;;5114583;28;20063;-74
2022/10/07 03:09:19;;;;;;;8.75;2.85;;;10.60;80.70;;;;;;5114591;28;20095;-73
2022/10/07 03:11:45;;;;;;;7.72;3.25;;;10.60;80.80;;;;;;5114511;28;20024;-74
2022/10/07 03:14:11;;;;;;;15.13;3.42;;;10.60;81.10;;;;;;5114450;28;20029;-73
2022/10/07 03:16:36;;;;;;;7.18;3.15;;;10.60;80.80;;;;;;5114409;28;20020;-74
2022/10/07 03:19:02;;;;;;;10.50;3.42;;;10.60;80.70;;;;;;5096504;28;20032;-74
2022/10/07 03:21:27;;;;;;;7.32;3.58;;;10.50;80.90;;;;;;5114316;28;20054;-74
2022/10/07 03:23:54;;;;;;;11.50;3.83;;;10.50;80.90;;;;;;5113412;28;20056;-74
2022/10/07 03:26:20;;;;;;;6.95;3.30;;;10.40;81.10;;;;;;5114258;28;20034;-74
2022/10/07 03:28:47;;;;;;;10.70;3.30;;;10.40;80.80;;;;;;5096031;28;20027;-74
2022/10/07 03:31:14;;;;;;;10.70;3.33;;;10.40;80.80;;;;;;5114160;28;20016;-74
2022/10/07 03:33:40;;;;;;;10.82;3.42;;;10.40;81.90;;;;;;5096685;28;20107;-74
2022/10/07 03:36:10;;;;;;;8.82;3.10;;;10.40;81.50;;;;;;5114057;28;20028;-74
2022/10/07 03:38:35;;;;;;;8.63;3.35;;;10.40;81.30;;;;;;5114036;28;20075;-74
2022/10/07 03:41:03;;;;;;;10.45;3.45;;;10.20;81.60;;;;;;5113990;28;20024;-73
2022/10/07 03:43:29;;;;;;;11.27;3.50;;;10.10;82.50;;;;;;5114087;28;20103;-74
2022/10/07 03:45:57;;;;;;;7.53;3.03;;;10.10;82.40;;;;;;5096011;28;20031;-74
2022/10/07 03:48:23;;;;;;;7.68;3.20;;;10.20;82.40;;;;;;5113781;28;20016;-74
2022/10/07 03:50:51;;;;;;;8.50;3.03;;;10.20;82.30;;;;;;5113572;28;20048;-73
2022/10/07 03:53:17;;;;;;;9.88;3.13;;;10.30;82.20;;;;;;5113819;28;20119;-73
2022/10/07 03:55:43;;;;;;;11.65;2.97;;;10.30;81.90;;;;;;5113786;28;20031;-73
2022/10/07 03:58:10;;;;;;;12.18;3.20;;;10.30;81.40;;;;;;5113733;28;20053;-73
2022/10/07 04:00:37;;;;;;;8.18;3.03;;;10.30;81.90;;;;;;5113682;28;20025;-73
2022/10/07 04:03:04;;;;;;;5.93;2.50;;;10.30;81.30;;;;;;5113693;28;20016;-74
2022/10/07 04:05:30;;;;;;;10.75;3.40;;;10.30;81.70;;;;;;5113629;28;20043;-74
2022/10/07 04:07:56;;;;;;;9.95;3.25;;;10.30;81.50;;;;;;5113661;28;20032;-74
2022/10/07 04:10:21;;;;;;;7.47;2.50;;;10.30;81.50;;;;;;5113705;28;20066;-74
2022/10/07 04:12:47;;;;;;;11.48;3.40;;;10.30;81.30;;;;;;5113566;28;20032;-73
2022/10/07 04:15:13;;;;;;;6.57;3.28;;;10.30;81.50;;;;;;5113546;28;20088;-74
2022/10/07 04:17:43;;;;;;;10.63;2.83;;;10.20;81.80;;;;;;5113512;28;20028;-73
2022/10/07 04:20:10;;;;;;;10.10;3.25;;;10.20;81.60;;;;;;5113502;28;20103;-74
2022/10/07 04:22:37;;;;;;;9.80;3.40;;;10.20;81.60;;;;;;5113497;28;20030;-73
2022/10/07 04:27:56;;;;;;;6.60;2.80;;;10.00;82.00;;;;;;5113595;28;20047;-73
2022/10/07 04:30:24;;;;;;;7.78;2.47;;;10.00;82.30;;;;;;5113514;28;20115;-74
2022/10/07 04:32:50;;;;;;;10.15;2.80;;;10.10;82.50;;;;;;5113373;28;20020;-74
2022/10/07 04:35:25;;;;;;;9.15;3.15;;;10.10;82.00;;;;;;5114198;28;20040;-73
2022/10/07 04:37:51;;;;;;;9.65;3.58;;;10.10;81.90;;;;;;5117525;28;20031;-74
2022/10/07 04:40:18;;;;;;;7.80;3.40;;;10.10;82.00;;;;;;5099590;28;20020;-74
2022/10/07 04:45:31;;;;;;;8.27;3.40;;;10.10;81.80;;;;;;5117467;28;20100;-74
2022/10/07 04:47:56;;;;;;;10.43;3.10;;;10.20;81.80;;;;;;5099297;28;20096;-73
2022/10/07 04:50:22;;;;;;;6.95;2.80;;;10.20;81.90;;;;;;5117064;28;20035;-73
2022/10/07 04:52:47;;;;;;;9.52;4.13;;;10.20;81.90;;;;;;5117204;28;20044;-74
2022/10/07 04:55:13;;;;;;;7.50;3.38;;;10.10;81.90;;;;;;5117243;28;20028;-73
2022/10/07 04:57:39;;;;;;;8.18;2.92;;;10.10;81.80;;;;;;5117084;28;20025;-73
2022/10/07 05:00:07;;;;;;;11.05;3.25;;;10.10;82.00;;;;;;5117061;28;20101;-74
2022/10/07 05:02:32;;;;;;;9.32;3.88;;;10.10;82.30;;;;;;5117013;28;20024;-73
2022/10/07 05:04:58;;;;;;;7.20;3.33;;;10.10;82.00;;;;;;5116969;28;20034;-74
2022/10/07 05:07:25;;;;;;;11.70;3.42;;;10.10;82.20;;;;;;5116836;28;20070;-74
2022/10/07 05:09:51;;;;;;;8.63;3.08;;;10.10;82.00;;;;;;5116879;28;20036;-73
2022/10/07 05:12:16;;;;;;;8.30;3.22;;;10.10;82.20;;;;;;5116828;28;20016;-73
2022/10/07 05:14:43;;;;;;;6.35;2.80;;;10.00;82.20;;;;;;5116898;28;20049;-74
2022/10/07 05:17:09;;;;;;;7.15;2.78;;;10.10;82.30;;;;;;5116724;28;20026;-74
2022/10/07 05:19:35;;;;;;;7.03;2.90;;;10.10;82.80;;;;;;5116671;28;20062;-74
2022/10/07 05:22:01;;;;;;;7.63;3.08;;;10.10;82.00;;;;;;5116632;28;20028;-74
2022/10/07 05:24:27;;;;;;;8.45;2.90;;;10.00;81.80;;;;;;5116585;28;20040;-74
2022/10/07 05:26:53;;;;;;;9.20;3.10;;;10.00;82.40;;;;;;5116552;28;20031;-74
2022/10/07 05:29:19;;;;;;;6.50;2.72;;;9.90;82.40;;;;;;5116360;28;20044;-74
2022/10/07 05:31:45;;;;;;;9.38;3.30;;;9.90;82.70;;;;;;5116452;28;20049;-74
2022/10/07 05:34:11;;;;;;;5.13;2.63;;;9.80;82.70;;;;;;5116378;28;20028;-74
2022/10/07 05:36:37;;;;;;;7.18;3.05;;;9.80;82.90;;;;;;5116394;28;20088;-74
2022/10/07 05:39:03;;;;;;;8.10;3.10;;;9.80;82.80;;;;;;5116289;28;20046;-74
2022/10/07 05:41:29;;;;;;;9.18;3.20;;;9.70;83.00;;;;;;5116271;28;20107;-73
2022/10/07 05:43:55;;;;;;;7.88;3.83;;;9.70;83.10;;;;;;5116230;28;20038;-74
2022/10/07 05:46:22;;;;;;;9.48;3.20;;;9.70;83.40;;;;;;5115879;28;20021;-73
2022/10/07 05:48:50;;;;;;;7.10;3.72;;;9.70;83.50;;;;;;5115597;28;20050;-74
2022/10/07 05:51:17;;;;;;;15.18;3.45;;;9.60;83.60;;;;;;5115902;28;20048;-74
2022/10/07 05:53:45;;;;;;;5.68;2.90;;;9.70;83.70;;;;;;5116046;28;20019;-74
2022/10/07 05:56:16;;;;;;;9.23;3.10;;;9.70;83.40;;;;;;5115999;28;20024;-73
2022/10/07 05:58:42;;;;;;;10.77;3.55;;;9.70;83.70;;;;;;5116109;28;20020;-73
2022/10/07 06:01:14;;;;;;;12.23;3.00;;;9.60;84.00;;;;;;5115888;28;20039;-74
2022/10/07 06:03:40;;;;;;;8.82;2.80;;;9.60;84.00;;;;;;5116042;28;20031;-74
2022/10/07 06:06:07;;;;;;;9.68;3.22;;;9.60;83.70;;;;;;5115795;28;20105;-73
2022/10/07 06:08:32;;;;;;;11.07;3.30;;;9.60;83.70;;;;;;5115656;28;20046;-73
2022/10/07 06:13:48;;;;;;;12.90;3.00;;;9.60;84.00;;;;;;5115907;28;20102;-73
2022/10/07 06:16:14;;;;;;;6.88;3.17;;;9.60;84.30;;;;;;5115631;28;20024;-74
2022/10/07 06:18:40;;;;;;;7.35;2.42;;;9.60;84.20;;;;;;5097671;28;20032;-73
2022/10/07 06:21:05;;;;;;;7.72;2.83;;;9.60;84.10;;;;;;5115490;28;20053;-74
2022/10/07 06:23:33;;;;;;;9.32;2.92;;;9.70;84.10;;;;;;5115419;28;20032;-73
2022/10/07 06:26:04;;;;;;;5.95;2.58;;;9.70;84.00;;;;;;5115442;28;20086;-74
2022/10/07 06:28:37;;;;;;;7.72;2.85;;;9.80;84.20;;;;;;5115198;28;20021;-73
2022/10/07 06:31:11;;;;;;;11.18;3.03;;;9.90;84.20;;;;;;5115227;28;20020;-73
2022/10/07 06:33:38;;;;;;;11.02;3.20;;;9.90;84.00;;;;;;5115400;28;20016;-74
2022/10/07 06:36:04;;;;;;;6.82;3.13;;;9.90;84.50;;;;;;5115187;28;20082;-73
2022/10/07 06:38:30;;;;;;;7.13;2.63;;;9.90;84.20;;;;;;5115097;28;20083;-74
2022/10/07 06:41:01;;;;;;;6.95;2.65;;;10.00;84.20;;;;;;5097171;28;20036;-74
2022/10/07 06:43:32;;;;;;;9.73;2.22;;;10.10;83.90;;;;;;5115034;28;20028;-74
2022/10/07 06:46:00;;;;;;;10.82;3.50;;;10.20;83.90;;;;;;5115026;28;20035;-74
2022/10/07 06:48:27;;;;;;;8.98;2.80;;;10.20;84.10;;;;;;5114895;28;20030;-74
2022/10/07 06:50:54;;;;;;;6.78;2.85;;;10.30;84.70;;;;;;5114777;28;20047;-74
2022/10/07 06:53:20;;;;;;;6.20;2.38;;;10.30;83.70;;;;;;5114852;28;20024;-74
2022/10/07 06:55:46;;;;;;;9.30;3.03;;;10.40;83.60;;;;;;5114822;28;20073;-73
2022/10/07 06:58:12;;;;;;;6.40;2.53;;;10.50;83.70;;;;;;5114690;28;20032;-73
2022/10/07 07:00:38;;;;;;;6.60;2.60;;;10.50;83.70;;;;;;5114707;28;20032;-73
2022/10/07 07:03:04;;;;;;;8.93;2.50;;;10.60;83.70;;;;;;5114664;28;20081;-74
2022/10/07 07:05:37;;;;;;;6.20;2.80;;;10.70;83.60;;;;;;5114649;28;20028;-73
2022/10/07 07:08:04;;;;;;;9.45;2.65;;;10.80;83.60;;;;;;5114579;28;20043;-73
2022/10/07 07:10:30;;;;;;;8.63;2.63;;;10.80;83.20;;;;;;5114559;28;20035;-74
2022/10/07 07:12:56;;;;;;;7.05;2.55;;;10.90;83.20;;;;;;5114521;28;20029;-74
2022/10/07 07:15:22;;;;;;;10.13;3.03;;;10.90;83.20;;;;;;5114458;28;20042;-73
2022/10/07 07:17:48;;;;;;;9.15;2.70;;;11.00;84.10;;;;;;5114425;28;20020;-74
2022/10/07 07:20:14;;;;;;;11.13;2.97;;;11.00;83.00;;;;;;5114365;28;20035;-74
2022/10/07 07:22:42;;;;;;;7.47;2.78;;;11.00;82.90;;;;;;5114325;28;20046;-73
2022/10/07 07:25:08;;;;;;;13.65;2.58;;;11.10;83.00;;;;;;5114243;28;20117;-74
2022/10/07 07:27:35;;;;;;;12.68;3.03;;;11.20;83.90;;;;;;5114182;28;20020;-73
2022/10/07 07:30:01;;;;;;;7.38;3.25;;;11.20;82.80;;;;;;5096446;28;20020;-73
2022/10/07 07:32:29;;;;;;;9.43;2.70;;;11.30;83.10;;;;;;5114147;28;20494;-73
2022/10/07 07:34:55;;;;;;;8.70;2.80;;;11.30;83.10;;;;;;5114139;28;20016;-73
2022/10/07 07:37:21;;;;;;;10.50;2.65;;;11.40;82.90;;;;;;5114100;28;20024;-74
2022/10/07 07:39:46;;;;;;;6.57;2.60;;;11.50;82.70;;;;;;5114041;28;20098;-74
2022/10/07 07:42:12;;;;;;;8.98;2.75;;;11.60;82.70;;;;;;5114000;28;20091;-74
2022/10/07 07:44:38;;;;;;;10.55;2.97;;;11.60;82.00;;;;;;5113829;28;20063;-73
2022/10/07 07:47:05;;;;;;;8.80;2.67;;;11.60;82.30;;;;;;5114050;28;20035;-73
2022/10/07 07:49:32;;;;;;;4.55;2.42;;;11.70;82.60;;;;;;5113790;28;20429;-73
2022/10/07 07:51:59;;;;;;;16.60;6.60;;;11.80;82.70;;;;;;5113684;28;20070;-73
2022/10/07 07:54:29;;;;;;;11.57;3.10;;;12.00;82.20;;;;;;5113796;28;20028;-73
2022/10/07 07:56:56;;;;;;;11.45;2.95;;;12.10;82.50;;;;;;5113881;28;20478;-73
2022/10/07 07:59:22;;;;;;;7.18;2.38;;;12.10;81.90;;;;;;5113763;28;20020;-73
2022/10/07 08:01:48;;;;;;;7.88;3.17;;;12.20;81.50;;;;;;5113707;28;20050;-74
2022/10/07 08:04:14;;;;;;;9.20;3.10;;;12.30;81.80;;;;;;5095826;28;20035;-73
2022/10/07 08:06:40;;;;;;;8.25;2.88;;;12.40;81.20;;;;;;5113632;28;20050;-74
2022/10/07 08:09:06;;;;;;;7.63;2.30;;;12.50;80.70;;;;;;5113511;28;20044;-73
2022/10/07 08:11:32;;;;;;;6.43;2.55;;;12.50;81.20;;;;;;5113099;28;20029;-74
2022/10/07 08:13:58;;;;;;;10.30;2.58;;;12.70;80.50;;;;;;5113564;28;20028;-73
2022/10/07 08:16:27;;;;;;;11.02;2.90;;;12.70;79.90;;;;;;5113540;28;20069;-74
2022/10/07 08:18:54;;;;;;;7.57;2.30;;;12.70;79.70;;;;;;5113443;28;20486;-73
2022/10/07 08:21:25;;;;;;;8.68;2.65;;;12.80;79.40;;;;;;5113473;28;20029;-74
2022/10/07 08:23:56;;;;;;;10.85;2.80;;;12.90;79.60;;;;;;5113650;28;20031;-74
2022/10/07 08:26:22;;;;;;;9.50;2.45;;;13.00;79.40;;;;;;5113448;28;20016;-74
2022/10/07 08:28:48;;;;;;;6.72;2.35;;;13.00;79.20;;;;;;5113392;28;20516;-73
2022/10/07 08:31:15;;;;;;;13.82;2.80;;;13.20;79.30;;;;;;5113550;28;20084;-74
2022/10/07 08:33:43;;;;;;;5.43;2.22;;;13.20;78.10;;;;;;5113389;28;20028;-73
2022/10/07 08:36:15;;;;;;;8.27;2.70;;;13.30;78.20;;;;;;5113370;28;20016;-74
2022/10/07 08:38:41;;;;;;;10.32;2.15;;;13.40;77.50;;;;;;5113365;28;20027;-74
2022/10/07 08:41:41;;;;;;;9.85;2.40;;;13.50;77.70;;;;;;5113293;28;20036;-73
2022/10/07 08:44:16;;;;;;;7.95;2.40;;;13.60;77.00;;;;;;5113339;28;20031;-73
2022/10/07 08:47:14;;;;;;;6.00;2.20;;;13.60;77.50;;;;;;5113319;28;20027;-74
2022/10/07 08:49:57;;;;;;;5.57;2.33;;;13.70;76.70;;;;;;5101091;28;20032;-74
2022/10/07 08:52:32;;;;;;;12.13;2.75;;;13.70;77.00;;;;;;5113010;28;20040;-74
2022/10/07 08:55:00;;;;;;;10.13;2.20;;;13.90;77.00;;;;;;5113234;28;20083;-74
2022/10/07 08:58:04;;;;;;;10.57;2.33;;;14.00;77.00;;;;;;5095272;28;20051;-74
2022/10/07 09:01:06;;;;;;;8.45;2.00;;;14.00;75.80;;;;;;5113212;28;20046;-73
2022/10/07 09:04:09;;;;;;;11.27;2.10;;;14.10;76.40;;;;;;5113114;28;20016;-73
2022/10/07 09:06:57;;;;;;;7.68;2.42;;;14.30;76.60;;;;;;5113083;28;20047;-74
2022/10/07 09:09:37;;;;;;;8.10;2.10;;;14.50;76.40;;;;;;5113043;28;20375;-74
2022/10/07 09:12:07;;;;;;;6.68;1.58;;;14.60;75.90;;;;;;5113214;28;20482;-74
2022/10/07 09:14:39;;;;;;;9.32;2.03;;;14.80;74.70;;;;;;5113308;28;20078;-74
2022/10/07 09:17:36;;;;;;;7.95;1.83;;;14.80;74.30;;;;;;5113106;28;20039;-74
2022/10/07 09:20:14;;;;;;;5.32;1.85;;;14.80;72.20;;;;;;5108540;28;20058;-74
2022/10/07 09:22:41;;;;;;;6.90;1.77;;;14.80;72.50;;;;;;5114342;28;20082;-74
2022/10/07 09:25:10;;;;;;;11.20;1.92;;;14.80;72.50;;;;;;5116738;28;20047;-74
2022/10/07 09:27:36;;;;;;;8.90;1.67;;;14.80;72.40;;;;;;5116479;28;20021;-74
2022/10/07 09:30:02;;;;;;;8.27;2.15;;;14.80;72.80;;;;;;5116405;28;20047;-74
2022/10/07 09:32:28;;;;;;;9.60;1.73;;;14.90;72.90;;;;;;5116485;28;20020;-74
2022/10/07 09:34:54;;;;;;;7.78;1.63;;;15.00;72.40;;;;;;5116403;28;20023;-74
2022/10/07 09:37:25;;;;;;;7.18;1.83;;;15.20;71.50;;;;;;5116382;28;20027;-73
2022/10/07 09:39:53;;;;;;;6.47;2.10;;;15.30;72.20;;;;;;5116320;28;20056;-73
2022/10/07 09:42:35;;;;;;;8.68;1.42;;;15.40;72.00;;;;;;5116278;28;20024;-74
2022/10/07 09:45:16;;;;;;;11.02;2.10;;;15.50;69.90;;;;;;5116432;28;20027;-74
2022/10/07 09:47:42;;;;;;;5.05;1.63;;;15.60;71.00;;;;;;5098227;28;20027;-74
2022/10/07 09:50:30;;;;;;;6.57;1.48;;;15.70;72.10;;;;;;5116137;28;20028;-73
2022/10/07 09:52:55;;;;;;;6.93;2.20;;;15.90;69.90;;;;;;5116155;28;20028;-74
2022/10/07 09:55:36;;;;;;;7.68;2.08;;;16.00;70.50;;;;;;5116015;28;20030;-74
2022/10/07 09:58:15;;;;;;;7.10;1.80;;;15.90;68.70;;;;;;5116017;28;20025;-74
2022/10/07 10:00:44;;;;;;;7.43;1.95;;;15.90;68.90;;;;;;5115964;28;20107;-73
2022/10/07 10:03:11;;;;;;;7.18;1.85;;;15.90;69.00;;;;;;5115843;28;20082;-74
2022/10/07 10:05:51;;;;;;;9.48;1.58;;;16.00;69.30;;;;;;5115895;28;20028;-74
2022/10/07 10:08:17;;;;;;;10.23;1.42;;;16.00;69.60;;;;;;5115757;28;20020;-74
2022/10/07 10:10:56;;;;;;;14.05;1.92;;;16.00;68.20;;;;;;5115685;28;20024;-74
2022/10/07 10:13:32;;;;;;;6.15;1.75;;;16.00;67.50;;;;;;5115748;28;20076;-74
2022/10/07 10:15:59;;;;;;;8.95;2.72;;;16.20;68.30;;;;;;5115770;28;20020;-74
2022/10/07 10:18:30;;;;;;;7.25;1.35;;;16.30;68.40;;;;;;5115594;28;20048;-74
2022/10/07 10:21:12;;;;;;;6.03;1.80;;;16.40;68.90;;;;;;5115536;28;20025;-74
2022/10/07 10:23:40;;;;;;;9.40;1.60;;;16.60;69.40;;;;;;5115505;28;20471;-74
2022/10/07 10:26:26;;;;;;;7.30;1.60;;;16.70;67.40;;;;;;5115466;28;20020;-74
2022/10/07 10:29:23;;;;;;;9.95;1.65;;;16.70;66.30;;;;;;5115384;28;20028;-74
2022/10/07 10:32:24;;;;;;;9.10;1.38;;;16.70;65.40;;;;;;5115464;28;20028;-74
2022/10/07 10:35:12;;;;;;;5.70;1.30;;;16.80;65.80;;;;;;5052660;28;20026;-74
2022/10/07 10:37:44;;;;;;;5.20;1.23;;;16.80;65.70;;;;;;5111674;28;20036;-74
2022/10/07 10:40:29;;;;;;;4.38;1.52;;;16.90;65.90;;;;;;5115159;28;20031;-74
2022/10/07 10:42:58;;;;;;;10.00;1.90;;;17.10;66.00;;;;;;5097008;28;20020;-75
2022/10/07 10:45:32;;;;;;;9.55;1.85;;;17.10;65.10;;;;;;5115088;28;20024;-74
2022/10/07 10:48:19;;;;;;;5.50;1.50;;;17.20;65.00;;;;;;5115105;28;20028;-74
2022/10/07 10:51:33;;;;;;;12.35;1.55;;;17.20;65.10;;;;;;5114787;28;20058;-74
2022/10/07 10:54:20;;;;;;;6.57;1.70;;;17.30;64.80;;;;;;5112714;28;20035;-74
2022/10/07 10:56:57;;;;;;;10.15;1.45;;;17.40;63.60;;;;;;5115031;28;20028;-74
2022/10/07 10:59:40;;;;;;;8.18;1.60;;;17.50;64.10;;;;;;5114973;28;20032;-75
2022/10/07 11:02:28;;;;;;;6.20;1.40;;;17.50;61.50;;;;;;5114920;28;20044;-74
2022/10/07 11:05:21;;;;;;;7.90;1.40;;;17.60;61.70;;;;;;5114878;28;20028;-74
2022/10/07 11:07:52;;;;;;;5.90;1.25;;;17.70;62.90;;;;;;5114710;28;20059;-74
2022/10/07 11:10:54;;;;;;;9.25;1.52;;;17.70;61.80;;;;;;5114591;28;20016;-74
2022/10/07 11:13:32;;;;;;;4.47;1.10;;;17.60;61.00;;;;;;5114574;28;20028;-75
2022/10/07 11:16:10;;;;;;;9.93;1.50;;;17.50;61.90;;;;;;5114499;28;20020;-74
2022/10/07 11:18:44;;;;;;;7.20;1.40;;;17.50;60.70;;;;;;5114626;28;20027;-74
2022/10/07 11:21:24;;;;;;;4.97;1.25;;;17.50;62.00;;;;;;5114425;28;20020;-74
2022/10/07 11:24:09;;;;;;;11.13;1.83;;;17.60;61.40;;;;;;5114379;28;20494;-74
2022/10/07 11:26:55;;;;;;;9.23;1.42;;;17.70;61.90;;;;;;5114463;28;20028;-74
2022/10/07 11:29:29;;;;;;;4.50;1.23;;;17.80;60.40;;;;;;5114204;28;20020;-74
2022/10/07 11:32:34;;;;;;;4.93;1.30;;;17.80;61.90;;;;;;5114383;28;20107;-74
2022/10/07 11:35:24;;;;;;;4.57;0.90;;;17.80;61.10;;;;;;5114264;28;20016;-74
2022/10/07 11:38:05;;;;;;;5.57;1.20;;;17.90;61.20;;;;;;5114108;28;20050;-74
2022/10/07 11:40:33;;;;;;;5.82;1.20;;;17.90;58.90;;;;;;5114076;28;20020;-74
2022/10/07 11:43:13;;;;;;;7.18;1.05;;;18.00;60.70;;;;;;5114011;28;20024;-74
2022/10/07 11:45:50;;;;;;;6.93;1.95;;;18.10;59.70;;;;;;5113285;28;20024;-74
2022/10/07 11:48:35;;;;;;;4.32;1.05;;;18.20;59.70;;;;;;5113879;28;20043;-74
2022/10/07 11:51:03;;;;;;;5.63;1.30;;;18.30;60.30;;;;;;5113679;28;20039;-73
2022/10/07 11:53:35;;;;;;;4.22;1.20;;;18.40;59.80;;;;;;5113821;28;20017;-74
2022/10/07 11:56:04;;;;;;;9.35;1.60;;;18.30;58.30;;;;;;5113962;28;20016;-74
2022/10/07 11:58:36;;;;;;;5.18;1.40;;;18.40;59.80;;;;;;5113783;28;20027;-74
2022/10/07 12:01:24;;;;;;;3.88;0.70;;;18.40;60.10;;;;;;5113783;28;20084;-74
2022/10/07 12:03:59;;;;;;;5.18;1.30;;;18.50;56.90;;;;;;5113834;28;20054;-73
2022/10/07 12:06:24;;;;;;;4.57;0.85;;;18.50;57.00;;;;;;5113798;28;20020;-74
2022/10/07 12:08:52;;;;;;;6.78;1.15;;;18.50;57.50;;;;;;5113573;28;20058;-74
2022/10/07 12:11:17;;;;;;;3.75;1.13;;;18.50;57.50;;;;;;5113636;28;20440;-74
2022/10/07 12:13:51;;;;;;;6.07;1.13;;;18.50;57.10;;;;;;5113582;28;20031;-74
2022/10/07 12:16:22;;;;;;;9.35;1.48;;;18.60;57.50;;;;;;5113597;28;20024;-73
2022/10/07 12:19:07;;;;;;;3.53;1.20;;;18.60;55.90;;;;;;5113547;28;20048;-74
2022/10/07 12:22:17;;;;;;;4.60;1.42;;;18.70;56.10;;;;;;5095681;28;20024;-74
2022/10/07 12:24:44;;;;;;;7.38;1.40;;;18.80;56.60;;;;;;5113661;28;20040;-74
2022/10/07 12:27:15;;;;;;;7.50;1.50;;;18.70;55.30;;;;;;5113458;28;20024;-73
2022/10/07 12:30:01;;;;;;;5.75;1.08;;;18.80;55.50;;;;;;5113306;28;20039;-74
2022/10/07 12:32:47;;;;;;;3.47;0.75;;;18.80;55.20;;;;;;5113445;28;20027;-75
2022/10/07 12:35:33;;;;;;;4.35;1.10;;;18.80;53.80;;;;;;5113400;28;20443;-74
2022/10/07 12:38:22;;;;;;;4.72;1.55;;;18.80;53.50;;;;;;5113346;28;20106;-74
2022/10/07 12:41:00;;;;;;;7.07;0.93;;;18.80;54.80;;;;;;5113496;28;20027;-74
2022/10/07 12:43:37;;;;;;;6.13;1.30;;;18.90;54.70;;;;;;5113327;28;20048;-74
2022/10/07 12:46:08;;;;;;;7.18;1.05;;;18.80;54.50;;;;;;5113483;28;20024;-74
2022/10/07 12:48:44;;;;;;;8.82;1.17;;;18.70;55.00;;;;;;5113241;28;20031;-74
2022/10/07 12:51:20;;;;;;;7.75;1.48;;;18.80;53.40;;;;;;5113175;28;20045;-74
2022/10/07 12:53:47;;;;;;;6.43;1.30;;;18.90;53.90;;;;;;5113370;28;20042;-74
2022/10/07 12:56:23;;;;;;;5.05;1.42;;;19.00;54.10;;;;;;5113858;28;20054;-74
2022/10/07 13:02:31;;;;;;;2.17;0.93;;;19.10;54.40;;;;;;5117342;28;20105;-74
2022/10/07 13:05:22;;;;;;;6.75;1.17;;;19.00;53.80;;;;;;5117083;28;20032;-73
2022/10/07 13:08:03;;;;;;;5.53;1.25;;;19.10;55.00;;;;;;5085444;28;20059;-74
2022/10/07 13:10:37;;;;;;;7.78;1.20;;;19.20;54.30;;;;;;5117091;28;20024;-74
2022/10/07 13:13:11;;;;;;;6.35;1.27;;;19.30;53.30;;;;;;5098879;28;20467;-73
2022/10/07 13:15:59;;;;;;;6.25;1.33;;;19.30;54.30;;;;;;5117014;28;20020;-74
2022/10/07 13:18:37;;;;;;;6.18;1.20;;;19.40;53.70;;;;;;5116830;28;20031;-73
2022/10/07 13:21:22;;;;;;;2.88;0.98;;;19.40;54.60;;;;;;5116780;28;20020;-73
2022/10/07 13:23:52;;;;;;;8.98;1.35;;;19.50;55.00;;;;;;5116703;28;20024;-73